createdAt,value
2022-08-22T00:01:24.795Z,4.22
2022-08-22T00:02:49.791Z,6.10
2022-08-22T00:02:52.695Z,3.97
2022-08-22T00:03:07.955Z,5.00
2022-08-22T00:03:15.349Z,5.50
2022-08-22T00:03:59.284Z,4.60
2022-08-22T00:06:38.299Z,4.15
2022-08-22T00:09:08.534Z,4.65
2022-08-22T00:11:38.779Z,4.40
2022-08-22T00:14:14.187Z,4.05
2022-08-22T00:16:54.614Z,4.43
2022-08-22T00:19:41.946Z,4.90
2022-08-22T00:22:09.126Z,4.45
2022-08-22T00:24:39.254Z,3.80
2022-08-22T00:27:20.217Z,4.03
2022-08-22T00:29:53.401Z,4.50
2022-08-22T00:32:28.212Z,4.05
2022-08-22T00:35:01.281Z,4.40
2022-08-22T00:37:31.476Z,4.22
2022-08-22T00:40:04.553Z,4.63
2022-08-22T00:42:37.767Z,3.90
2022-08-22T00:45:04.953Z,3.97
2022-08-22T00:47:46.519Z,4.45
2022-08-22T00:50:13.686Z,4.35
2022-08-22T00:52:43.541Z,4.50
2022-08-22T00:55:11.452Z,4.25
2022-08-22T00:57:44.366Z,3.90
2022-08-22T01:00:17.312Z,4.72
2022-08-22T01:02:50.427Z,4.13
2022-08-22T01:05:25.632Z,4.38
2022-08-22T01:07:52.797Z,4.55
2022-08-22T01:10:22.775Z,4.60
2022-08-22T01:13:04.001Z,3.92
2022-08-22T01:15:34.113Z,4.40
2022-08-22T01:18:16.572Z,4.30
2022-08-22T01:20:53.360Z,4.03
2022-08-22T01:23:20.471Z,4.45
2022-08-22T01:25:50.949Z,4.20
2022-08-22T01:28:36.631Z,4.68
2022-08-22T01:31:37.299Z,4.20
2022-08-22T01:34:27.491Z,4.22
2022-08-22T01:36:57.723Z,4.32
2022-08-22T01:39:25.701Z,4.07
2022-08-22T01:41:52.878Z,4.25
2022-08-22T01:44:27.962Z,4.35
2022-08-22T01:46:59.421Z,4.75
2022-08-22T01:49:36.118Z,4.10
2022-08-22T01:52:03.335Z,4.35
2022-08-22T01:54:50.755Z,4.60
2022-08-22T01:57:19.305Z,4.00
2022-08-22T01:59:54.974Z,4.57
2022-08-22T02:02:32.099Z,4.60
2022-08-22T02:05:18.565Z,4.47
2022-08-22T02:07:46.173Z,4.07
2022-08-22T02:10:32.151Z,4.97
2022-08-22T02:12:59.301Z,4.07
2022-08-22T02:15:41.629Z,4.53
2022-08-22T02:18:31.443Z,4.30
2022-08-22T02:21:16.439Z,4.65
2022-08-22T02:23:49.455Z,4.70
2022-08-22T02:26:26.386Z,4.43
2022-08-22T02:29:09.238Z,4.82
2022-08-22T02:31:57.202Z,4.50
2022-08-22T02:34:27.219Z,4.72
2022-08-22T02:36:58.124Z,4.32
2022-08-22T02:39:33.775Z,4.45
2022-08-22T02:42:06.998Z,4.75
2022-08-22T02:44:35.836Z,4.10
2022-08-22T02:47:12.459Z,4.15
2022-08-22T02:49:43.947Z,3.67
2022-08-22T02:52:11.305Z,3.80
2022-08-22T02:54:42.518Z,4.30
2022-08-22T02:57:29.906Z,4.75
2022-08-22T03:00:30.836Z,4.28
2022-08-22T03:03:14.711Z,5.32
2022-08-22T03:05:48.190Z,4.00
2022-08-22T03:08:32.370Z,4.10
2022-08-22T03:11:05.216Z,4.00
2022-08-22T03:13:46.857Z,4.43
2022-08-22T03:16:17.067Z,4.28
2022-08-22T03:18:48.562Z,4.00
2022-08-22T03:21:25.400Z,4.00
2022-08-22T03:23:57.982Z,4.47
2022-08-22T03:26:30.811Z,4.65
2022-08-22T03:29:02.943Z,4.35
2022-08-22T03:31:30.923Z,4.55
2022-08-22T03:34:16.456Z,4.40
2022-08-22T03:37:09.623Z,4.22
2022-08-22T03:39:52.256Z,4.18
2022-08-22T03:42:22.502Z,4.28
2022-08-22T03:45:07.703Z,4.70
2022-08-22T03:47:40.974Z,4.50
2022-08-22T03:50:24.327Z,4.10
2022-08-22T03:53:18.877Z,4.00
2022-08-22T03:56:05.302Z,4.30
2022-08-22T03:58:57.474Z,4.47
2022-08-22T04:01:36.769Z,4.47
2022-08-22T04:04:09.963Z,4.63
2022-08-22T04:06:49.439Z,4.82
2022-08-22T04:09:20.754Z,4.05
2022-08-22T04:11:51.303Z,4.15
2022-08-22T04:14:36.897Z,4.57
2022-08-22T04:17:25.625Z,4.90
2022-08-22T04:20:02.031Z,4.93
2022-08-22T04:22:29.163Z,4.47
2022-08-22T04:25:03.584Z,4.28
2022-08-22T04:27:55.732Z,4.38
2022-08-22T04:30:32.913Z,4.55
2022-08-22T04:33:04.683Z,4.55
2022-08-22T04:35:31.879Z,3.65
2022-08-22T04:37:59.142Z,4.30
2022-08-22T04:40:26.475Z,4.22
2022-08-22T04:43:08.460Z,4.28
2022-08-22T04:45:38.400Z,4.25
2022-08-22T04:48:05.559Z,4.82
2022-08-22T04:50:38.009Z,4.75
2022-08-22T04:53:15.252Z,4.55
2022-08-22T04:56:07.311Z,4.57
2022-08-22T04:58:49.143Z,4.47
2022-08-22T05:01:18.802Z,4.60
2022-08-22T05:03:50.954Z,4.85
2022-08-22T05:06:19.770Z,4.97
2022-08-22T05:08:53.779Z,4.57
2022-08-22T05:11:22.992Z,4.95
2022-08-22T05:13:57.730Z,5.07
2022-08-22T05:16:27.859Z,4.40
2022-08-22T05:18:58.675Z,4.57
2022-08-22T05:21:29.095Z,5.03
2022-08-22T05:23:59.862Z,4.70
2022-08-22T05:26:28.054Z,4.68
2022-08-22T05:28:58.762Z,3.90
2022-08-22T05:31:28.251Z,4.53
2022-08-22T05:33:59.779Z,5.55
2022-08-22T05:36:28.651Z,4.90
2022-08-22T05:38:58.474Z,4.30
2022-08-22T05:41:28.908Z,4.78
2022-08-22T05:43:56.145Z,4.82
2022-08-22T05:46:38.207Z,4.97
2022-08-22T05:49:05.746Z,5.00
2022-08-22T05:51:40.370Z,5.03
2022-08-22T05:54:14.423Z,4.93
2022-08-22T05:56:46.937Z,5.07
2022-08-22T05:59:14.507Z,4.70
2022-08-22T06:01:54.923Z,5.10
2022-08-22T06:04:28.135Z,4.78
2022-08-22T06:06:55.259Z,5.05
2022-08-22T06:09:35.675Z,5.28
2022-08-22T06:12:02.943Z,5.28
2022-08-22T06:14:33.851Z,5.32
2022-08-22T06:17:05.387Z,4.97
2022-08-22T06:19:36.103Z,5.63
2022-08-22T06:22:03.747Z,5.40
2022-08-22T06:24:32.898Z,5.45
2022-08-22T06:27:04.679Z,5.95
2022-08-22T06:29:37.302Z,5.95
2022-08-22T06:32:12.021Z,5.85
2022-08-22T06:34:41.587Z,6.30
2022-08-22T06:37:11.210Z,6.15
2022-08-22T06:39:43.609Z,6.20
2022-08-22T06:42:16.738Z,6.85
2022-08-22T06:44:44.179Z,6.82
2022-08-22T06:47:17.025Z,6.53
2022-08-22T06:49:45.746Z,8.02
2022-08-22T06:52:14.795Z,6.93
2022-08-22T06:54:45.436Z,6.28
2022-08-22T06:57:31.062Z,6.60
2022-08-22T06:59:59.879Z,6.60
2022-08-22T07:02:31.331Z,6.55
2022-08-22T07:04:58.703Z,7.68
2022-08-22T07:07:27.335Z,8.50
2022-08-22T07:09:56.439Z,7.80
2022-08-22T07:12:35.638Z,7.93
2022-08-22T07:15:10.771Z,7.85
2022-08-22T07:17:47.219Z,8.15
2022-08-22T07:20:18.074Z,7.45
2022-08-22T07:22:54.432Z,7.82
2022-08-22T07:25:23.045Z,7.03
2022-08-22T07:28:00.295Z,6.45
2022-08-22T07:30:35.438Z,6.43
2022-08-22T07:33:26.047Z,6.60
2022-08-22T07:35:59.430Z,6.47
2022-08-22T07:38:26.703Z,5.53
2022-08-22T07:40:56.700Z,5.55
2022-08-22T07:43:26.570Z,4.82
2022-08-22T07:45:56.467Z,4.32
2022-08-22T07:48:27.424Z,3.58
2022-08-22T07:51:00.947Z,3.55
2022-08-22T07:53:30.891Z,3.97
2022-08-22T07:55:59.801Z,3.53
2022-08-22T07:58:29.038Z,3.20
2022-08-22T08:00:57.287Z,3.58
2022-08-22T08:03:25.424Z,3.85
2022-08-22T08:05:53.789Z,3.38
2022-08-22T08:08:23.105Z,3.70
2022-08-22T08:10:50.862Z,3.22
2022-08-22T08:13:27.568Z,2.90
2022-08-22T08:15:54.784Z,3.40
2022-08-22T08:18:25.766Z,3.20
2022-08-22T08:20:56.671Z,3.05
2022-08-22T08:23:25.175Z,3.00
2022-08-22T08:25:58.391Z,3.10
2022-08-22T08:28:35.078Z,3.58
2022-08-22T08:31:11.609Z,2.80
2022-08-22T08:33:40.765Z,2.80
2022-08-22T08:36:13.235Z,2.75
2022-08-22T08:38:49.912Z,2.78
2022-08-22T08:41:39.819Z,2.60
2022-08-22T08:44:10.068Z,2.97
2022-08-22T08:46:57.388Z,2.88
2022-08-22T08:49:43.258Z,2.92
2022-08-22T08:52:29.292Z,2.70
2022-08-22T08:55:22.882Z,3.15
2022-08-22T08:58:10.305Z,2.42
2022-08-22T09:00:43.379Z,2.60
2022-08-22T09:06:34.438Z,2.45
2022-08-22T09:09:11.755Z,2.60
2022-08-22T09:11:46.369Z,2.30
2022-08-22T09:14:28.413Z,2.40
2022-08-22T09:17:14.524Z,2.25
2022-08-22T09:19:47.731Z,2.20
2022-08-22T09:22:21.288Z,1.80
2022-08-22T09:25:06.345Z,1.85
2022-08-22T09:27:46.207Z,2.30
2022-08-22T09:30:15.570Z,2.00
2022-08-22T09:32:48.950Z,2.00
2022-08-22T09:35:35.025Z,1.60
2022-08-22T09:38:02.178Z,2.20
2022-08-22T09:40:32.220Z,2.00
2022-08-22T09:43:02.706Z,1.80
2022-08-22T09:45:41.095Z,1.88
2022-08-22T09:48:13.403Z,1.92
2022-08-22T09:50:43.419Z,2.00
2022-08-22T09:53:10.914Z,1.70
2022-08-22T09:56:15.819Z,2.15
2022-08-22T09:59:01.697Z,1.77
2022-08-22T10:01:35.291Z,1.77
2022-08-22T10:04:21.425Z,1.80
2022-08-22T10:07:11.172Z,1.63
2022-08-22T10:09:57.547Z,1.70
2022-08-22T10:12:35.151Z,1.73
2022-08-22T10:15:04.218Z,1.73
2022-08-22T10:17:41.114Z,1.80
2022-08-22T10:20:27.891Z,1.77
2022-08-22T10:22:55.028Z,1.92
2022-08-22T10:25:23.881Z,1.90
2022-08-22T10:27:54.569Z,2.20
2022-08-22T10:30:27.669Z,2.17
2022-08-22T10:33:08.944Z,2.50
2022-08-22T10:35:51.558Z,2.20
2022-08-22T10:38:32.335Z,2.42
2022-08-22T10:41:03.183Z,2.35
2022-08-22T10:43:44.900Z,2.70
2022-08-22T10:46:23.575Z,2.45
2022-08-22T10:48:50.926Z,2.47
2022-08-22T10:51:29.678Z,2.42
2022-08-22T10:53:56.887Z,2.40
2022-08-22T10:56:27.673Z,2.28
2022-08-22T10:59:13.688Z,2.80
2022-08-22T11:01:46.009Z,2.53
2022-08-22T11:04:18.346Z,2.58
2022-08-22T11:06:47.793Z,2.47
2022-08-22T11:09:37.534Z,2.63
2022-08-22T11:12:08.659Z,2.40
2022-08-22T11:15:00.382Z,2.45
2022-08-22T11:17:33.232Z,2.40
2022-08-22T11:20:14.862Z,2.67
2022-08-22T11:22:41.988Z,2.47
2022-08-22T11:25:41.093Z,2.63
2022-08-22T11:28:33.395Z,2.28
2022-08-22T11:31:19.889Z,2.88
2022-08-22T11:34:00.803Z,2.20
2022-08-22T11:36:30.975Z,2.40
2022-08-22T11:39:01.929Z,2.30
2022-08-22T11:41:36.872Z,2.30
2022-08-22T11:44:30.543Z,2.45
2022-08-22T11:46:59.916Z,2.10
2022-08-22T11:49:39.822Z,2.13
2022-08-22T11:52:13.823Z,2.15
2022-08-22T11:54:51.676Z,1.90
2022-08-22T11:57:25.588Z,2.00
2022-08-22T11:59:56.391Z,1.90
2022-08-22T12:02:47.415Z,1.80
2022-08-22T12:05:26.469Z,1.58
2022-08-22T12:07:57.158Z,1.60
2022-08-22T12:10:31.898Z,2.20
2022-08-22T12:13:01.333Z,1.90
2022-08-22T12:15:33.482Z,2.13
2022-08-22T12:18:21.279Z,1.80
2022-08-22T12:20:57.262Z,1.95
2022-08-22T12:23:43.421Z,1.70
2022-08-22T12:26:25.910Z,1.70
2022-08-22T12:29:02.523Z,1.73
2022-08-22T12:31:48.390Z,1.83
2022-08-22T12:34:35.868Z,1.65
2022-08-22T12:37:15.721Z,1.80
2022-08-22T12:40:09.036Z,1.77
2022-08-22T12:43:06.571Z,1.77
2022-08-22T12:45:33.795Z,1.83
2022-08-22T12:48:19.038Z,1.80
2022-08-22T12:50:46.260Z,1.77
2022-08-22T12:53:25.757Z,2.10
2022-08-22T12:56:10.747Z,1.67
2022-08-22T12:58:51.290Z,1.73
2022-08-22T13:01:19.346Z,1.88
2022-08-22T13:04:01.725Z,1.90
2022-08-22T13:06:36.182Z,1.88
2022-08-22T13:11:37.395Z,1.85
2022-08-22T13:14:04.795Z,2.00
2022-08-22T13:16:37.043Z,1.92
2022-08-22T13:19:13.680Z,1.90
2022-08-22T13:21:45.432Z,1.73
2022-08-22T13:24:22.554Z,1.80
2022-08-22T13:26:54.027Z,2.25
2022-08-22T13:29:26.024Z,1.58
2022-08-22T13:31:58.999Z,2.22
2022-08-22T13:34:43.574Z,1.88
2022-08-22T13:37:16.979Z,1.70
2022-08-22T13:39:45.992Z,2.03
2022-08-22T13:42:27.679Z,1.40
2022-08-22T13:44:59.075Z,2.20
2022-08-22T13:47:31.792Z,2.22
2022-08-22T13:50:05.151Z,1.73
2022-08-22T13:52:39.635Z,1.70
2022-08-22T13:55:18.536Z,2.35
2022-08-22T13:57:51.758Z,2.03
2022-08-22T14:00:27.432Z,1.90
2022-08-22T14:03:07.959Z,1.88
2022-08-22T14:05:41.064Z,2.13
2022-08-22T14:08:14.437Z,1.95
2022-08-22T14:10:45.529Z,1.92
2022-08-22T14:13:12.812Z,1.67
2022-08-22T14:15:45.262Z,2.05
2022-08-22T14:18:21.255Z,1.67
2022-08-22T14:21:16.389Z,1.70
2022-08-22T14:23:44.375Z,1.40
2022-08-22T14:26:23.602Z,1.80
2022-08-22T14:29:01.758Z,2.17
2022-08-22T14:31:30.175Z,1.80
2022-08-22T14:33:57.998Z,1.67
2022-08-22T14:36:29.664Z,1.52
2022-08-22T14:39:01.253Z,1.70
2022-08-22T14:41:52.926Z,1.88
2022-08-22T14:44:22.331Z,1.55
2022-08-22T14:46:52.707Z,2.00
2022-08-22T14:49:20.798Z,1.90
2022-08-22T14:51:55.171Z,1.60
2022-08-22T14:54:23.303Z,1.90
2022-08-22T14:56:56.830Z,1.52
2022-08-22T14:59:35.781Z,2.10
2022-08-22T15:02:08.223Z,2.00
2022-08-22T15:04:38.765Z,2.20
2022-08-22T15:07:06.458Z,1.98
2022-08-22T15:09:40.782Z,1.83
2022-08-22T15:12:21.303Z,2.00
2022-08-22T15:14:52.482Z,1.88
2022-08-22T15:17:33.869Z,1.90
2022-08-22T15:20:28.585Z,2.08
2022-08-22T15:22:58.012Z,2.40
2022-08-22T15:25:29.830Z,1.92
2022-08-22T15:28:05.282Z,1.60
2022-08-22T15:30:32.906Z,1.77
2022-08-22T15:33:09.373Z,2.20
2022-08-22T15:35:40.218Z,2.20
2022-08-22T15:38:26.326Z,1.70
2022-08-22T15:40:55.578Z,1.90
2022-08-22T15:43:34.850Z,1.77
2022-08-22T15:46:18.323Z,1.88
2022-08-22T15:48:55.537Z,1.75
2022-08-22T15:51:38.468Z,2.20
2022-08-22T15:54:24.868Z,2.00
2022-08-22T15:56:52.795Z,1.75
2022-08-22T15:59:26.100Z,2.40
2022-08-22T16:02:06.408Z,2.10
2022-08-22T16:04:49.353Z,2.00
2022-08-22T16:07:35.377Z,1.88
2022-08-22T16:10:06.377Z,2.30
2022-08-22T16:12:36.738Z,2.00
2022-08-22T16:15:05.565Z,2.13
2022-08-22T16:17:41.159Z,2.03
2022-08-22T16:20:09.116Z,1.92
2022-08-22T16:22:56.395Z,2.10
2022-08-22T16:25:42.141Z,1.88
2022-08-22T16:28:31.675Z,1.75
2022-08-22T16:31:19.387Z,1.77
2022-08-22T16:33:47.255Z,2.13
2022-08-22T16:36:20.651Z,1.60
2022-08-22T16:38:50.061Z,1.50
2022-08-22T16:41:28.955Z,1.70
2022-08-22T16:44:14.341Z,1.50
2022-08-22T16:46:45.658Z,1.80
2022-08-22T16:49:23.994Z,1.50
2022-08-22T16:52:14.252Z,1.70
2022-08-22T16:54:43.779Z,1.98
2022-08-22T16:57:18.539Z,1.50
2022-08-22T16:59:54.826Z,1.70
2022-08-22T17:02:33.207Z,1.50
2022-08-22T17:05:19.159Z,1.25
2022-08-22T17:07:58.737Z,1.30
2022-08-22T17:10:39.330Z,1.30
2022-08-22T17:13:09.347Z,1.35
2022-08-22T17:15:55.126Z,1.10
2022-08-22T17:18:22.233Z,1.50
2022-08-22T17:20:55.335Z,1.58
2022-08-22T17:23:30.814Z,1.58
2022-08-22T17:26:10.122Z,1.35
2022-08-22T17:28:55.911Z,1.23
2022-08-22T17:31:32.860Z,1.42
2022-08-22T17:34:09.098Z,1.23
2022-08-22T17:36:55.092Z,1.35
2022-08-22T17:39:22.204Z,1.60
2022-08-22T17:42:03.235Z,1.20
2022-08-22T17:44:39.570Z,1.55
2022-08-22T17:47:08.995Z,1.60
2022-08-22T17:49:48.443Z,1.05
2022-08-22T17:52:29.490Z,1.50
2022-08-22T17:55:00.281Z,1.20
2022-08-22T18:00:35.427Z,1.65
2022-08-22T18:05:32.739Z,1.30
2022-08-22T18:08:08.975Z,1.88
2022-08-22T18:10:39.778Z,2.00
2022-08-22T18:13:14.476Z,1.60
2022-08-22T18:15:45.783Z,1.17
2022-08-22T18:18:28.157Z,2.10
2022-08-22T18:20:57.245Z,1.70
2022-08-22T18:23:36.014Z,2.03
2022-08-22T18:26:25.601Z,1.50
2022-08-22T18:28:57.334Z,1.50
2022-08-22T18:31:34.183Z,1.60
2022-08-22T18:34:14.079Z,1.60
2022-08-22T18:36:48.303Z,1.95
2022-08-22T18:39:20.407Z,1.88
2022-08-22T18:42:00.402Z,1.42
2022-08-22T18:44:34.306Z,1.52
2022-08-22T18:47:10.638Z,1.65
2022-08-22T18:49:40.210Z,1.67
2022-08-22T18:52:07.342Z,1.63
2022-08-22T18:54:37.304Z,1.38
2022-08-22T18:57:23.733Z,1.92
2022-08-22T18:59:53.894Z,1.92
2022-08-22T19:02:21.018Z,1.90
2022-08-22T19:04:54.210Z,1.38
2022-08-22T19:07:24.351Z,1.90
2022-08-22T19:09:57.808Z,1.77
2022-08-22T19:12:25.010Z,1.80
2022-08-22T19:15:12.375Z,1.83
2022-08-22T19:17:58.926Z,1.83
2022-08-22T19:20:47.334Z,1.60
2022-08-22T19:23:32.749Z,1.45
2022-08-22T19:26:18.750Z,1.60
2022-08-22T19:28:45.918Z,1.80
2022-08-22T19:31:22.567Z,1.60
2022-08-22T19:34:09.692Z,1.67
2022-08-22T19:36:36.875Z,1.80
2022-08-22T19:39:09.221Z,1.80
2022-08-22T19:41:53.144Z,2.22
2022-08-22T19:44:20.251Z,1.73
2022-08-22T19:46:58.122Z,1.40
2022-08-22T19:49:30.747Z,1.92
2022-08-22T19:52:21.238Z,1.92
2022-08-22T19:54:48.370Z,1.77
2022-08-22T19:57:34.063Z,1.70
2022-08-22T20:00:06.789Z,2.08
2022-08-22T20:02:40.193Z,1.85
2022-08-22T20:05:13.209Z,1.80
2022-08-22T20:07:59.159Z,1.95
2022-08-22T20:10:26.251Z,1.85
2022-08-22T20:13:04.084Z,2.22
2022-08-22T20:15:34.141Z,2.30
2022-08-22T20:21:00.353Z,1.75
2022-08-22T20:23:30.318Z,2.50
2022-08-22T20:25:58.186Z,2.20
2022-08-22T20:28:25.363Z,1.83
2022-08-22T20:30:56.314Z,1.95
2022-08-22T20:33:27.403Z,2.08
2022-08-22T20:35:59.015Z,2.10
2022-08-22T20:38:38.072Z,2.10
2022-08-22T20:41:24.151Z,2.40
2022-08-22T20:43:53.923Z,2.22
2022-08-22T20:46:44.369Z,2.40
2022-08-22T20:49:21.223Z,2.35
2022-08-22T20:51:53.546Z,2.25
2022-08-22T20:54:23.934Z,2.08
2022-08-22T20:56:53.917Z,2.17
2022-08-22T20:59:27.483Z,2.25
2022-08-22T21:02:03.814Z,2.28
2022-08-22T21:04:42.552Z,2.60
2022-08-22T21:07:10.105Z,2.60
2022-08-22T21:09:55.780Z,2.83
2022-08-22T21:12:24.086Z,2.30
2022-08-22T21:14:51.242Z,2.53
2022-08-22T21:17:19.578Z,2.58
2022-08-22T21:19:46.727Z,2.03
2022-08-22T21:22:34.125Z,2.50
2022-08-22T21:25:01.414Z,2.53
2022-08-22T21:27:33.029Z,2.80
2022-08-22T21:30:01.194Z,2.92
2022-08-22T21:32:52.292Z,2.70
2022-08-22T21:35:22.305Z,2.65
2022-08-22T21:37:49.484Z,2.55
2022-08-22T21:40:42.966Z,2.65
2022-08-22T21:43:11.492Z,2.42
2022-08-22T21:45:38.602Z,2.92
2022-08-22T21:48:35.263Z,2.83
2022-08-22T21:51:20.921Z,2.35
2022-08-22T21:53:48.226Z,2.60
2022-08-22T21:56:29.372Z,2.60
2022-08-22T21:59:15.340Z,2.65
2022-08-22T22:01:42.853Z,2.90
2022-08-22T22:04:13.267Z,2.83
2022-08-22T22:06:40.467Z,2.60
2022-08-22T22:09:10.897Z,2.88
2022-08-22T22:11:40.668Z,3.00
2022-08-22T22:14:07.835Z,2.83
2022-08-22T22:16:35.271Z,2.95
2022-08-22T22:19:02.468Z,2.45
2022-08-22T22:21:29.619Z,2.75
2022-08-22T22:23:58.483Z,2.70
2022-08-22T22:26:26.653Z,3.17
2022-08-22T22:28:53.857Z,2.65
2022-08-22T22:31:20.969Z,2.63
2022-08-22T22:33:48.146Z,2.58
2022-08-22T22:36:23.653Z,2.60
2022-08-22T22:38:52.010Z,2.72
2022-08-22T22:41:20.232Z,3.00
2022-08-22T22:43:47.387Z,3.20
2022-08-22T22:46:14.544Z,2.92
2022-08-22T22:48:41.693Z,2.70
2022-08-22T22:51:09.682Z,2.83
2022-08-22T22:53:40.428Z,2.83
2022-08-22T22:56:11.210Z,2.85
2022-08-22T22:58:38.823Z,2.83
2022-08-22T23:01:09.245Z,2.88
2022-08-22T23:03:36.442Z,2.85
2022-08-22T23:06:03.634Z,2.65
2022-08-22T23:08:30.827Z,3.13
2022-08-22T23:10:58.288Z,3.10
2022-08-22T23:13:25.432Z,3.13
2022-08-22T23:15:53.590Z,3.08
2022-08-22T23:18:20.922Z,3.00
2022-08-22T23:20:53.890Z,2.92
2022-08-22T23:23:21.034Z,3.25
2022-08-22T23:25:48.228Z,2.92
2022-08-22T23:28:15.397Z,3.10
2022-08-22T23:30:42.546Z,3.00
2022-08-22T23:33:09.721Z,2.60
2022-08-22T23:35:36.938Z,3.17
2022-08-22T23:38:04.071Z,3.67
2022-08-22T23:40:31.214Z,3.60
2022-08-22T23:42:59.295Z,3.10
2022-08-22T23:45:26.803Z,2.80
2022-08-22T23:47:53.959Z,3.17
2022-08-22T23:50:21.149Z,3.90
2022-08-22T23:52:48.411Z,3.08
2022-08-22T23:55:15.600Z,3.20
2022-08-22T23:57:42.758Z,3.72
